DAL452 KATL-KJFK
Flight info
| Callsign | DAL452 |
|---|---|
| Flight time | N/A |
| Altitude | 33000 |
| Route | PHIIL3 HRTWL Q64 SAWED Q108 SIE CAMRN5 |
| Aircraft | A20N/M-SDE2E3FGHIRWXY/LB1 |
Departure
| Time | N/A |
|---|---|
| Airport | Hartsfield Jackson Atlanta International Airport (KATL) |
Arrival
| Time | 2026-05-07 01:52 |
|---|---|
| Airport | John F. Kennedy International Airport (KJFK) |
| Time | Latitude | Longitude | Altitude | Speed | Heading |
|---|---|---|---|---|---|
| 2026-05-07 00:12 | 33.91647 | -82.81770 | 25461 ft | 458 kts | 58° |
| 2026-05-07 00:12 | 33.93323 | -82.78509 | 25543 ft | 459 kts | 58° |
| 2026-05-07 00:13 | 33.94981 | -82.75279 | 25619 ft | 459 kts | 58° |
| 2026-05-07 00:13 | 33.96663 | -82.71999 | 25693 ft | 460 kts | 58° |
| 2026-05-07 00:13 | 33.98342 | -82.68721 | 25763 ft | 460 kts | 58° |
| 2026-05-07 00:13 | 34.00023 | -82.65427 | 25830 ft | 461 kts | 58° |
| 2026-05-07 00:14 | 34.01693 | -82.62127 | 25894 ft | 462 kts | 59° |
| 2026-05-07 00:14 | 34.03363 | -82.58817 | 25956 ft | 462 kts | 59° |
| 2026-05-07 00:14 | 34.05033 | -82.55507 | 26014 ft | 463 kts | 59° |
| 2026-05-07 00:14 | 34.06706 | -82.52189 | 26070 ft | 463 kts | 59° |
| 2026-05-07 00:15 | 34.08379 | -82.48871 | 26123 ft | 464 kts | 59° |
| 2026-05-07 00:15 | 34.10054 | -82.45546 | 26174 ft | 464 kts | 59° |
| 2026-05-07 00:15 | 34.11733 | -82.42209 | 26223 ft | 464 kts | 59° |
| 2026-05-07 00:15 | 34.13385 | -82.38924 | 26269 ft | 465 kts | 59° |
| 2026-05-07 00:16 | 34.15062 | -82.35587 | 26313 ft | 465 kts | 59° |
| 2026-05-07 00:16 | 34.16741 | -82.32242 | 26355 ft | 465 kts | 59° |
| 2026-05-07 00:16 | 34.18419 | -82.28897 | 26394 ft | 466 kts | 59° |
| 2026-05-07 00:16 | 34.20097 | -82.25549 | 26434 ft | 466 kts | 59° |
| 2026-05-07 00:17 | 34.21778 | -82.22191 | 26471 ft | 466 kts | 59° |
| 2026-05-07 00:17 | 34.23455 | -82.18838 | 26506 ft | 467 kts | 59° |
| 2026-05-07 00:17 | 34.25135 | -82.15476 | 26539 ft | 467 kts | 59° |
| 2026-05-07 00:17 | 34.26818 | -82.12118 | 26571 ft | 467 kts | 59° |
| 2026-05-07 00:18 | 34.28512 | -82.08757 | 26602 ft | 468 kts | 59° |
| 2026-05-07 00:18 | 34.30206 | -82.05398 | 26640 ft | 468 kts | 59° |
| 2026-05-07 00:18 | 34.31894 | -82.02047 | 26862 ft | 463 kts | 59° |
| 2026-05-07 00:18 | 34.33528 | -81.98797 | 27317 ft | 453 kts | 59° |
| 2026-05-07 00:19 | 34.35153 | -81.95562 | 27601 ft | 448 kts | 59° |
| 2026-05-07 00:19 | 34.36772 | -81.92334 | 27641 ft | 449 kts | 59° |
| 2026-05-07 00:19 | 34.38389 | -81.89104 | 27797 ft | 447 kts | 59° |
| 2026-05-07 00:19 | 34.39987 | -81.85913 | 28209 ft | 438 kts | 59° |
| 2026-05-07 00:20 | 34.41548 | -81.82791 | 28701 ft | 428 kts | 59° |
| 2026-05-07 00:20 | 34.43071 | -81.79742 | 29194 ft | 418 kts | 59° |
| 2026-05-07 00:20 | 34.44559 | -81.76762 | 29687 ft | 407 kts | 59° |
| 2026-05-07 00:20 | 34.46004 | -81.73865 | 30178 ft | 397 kts | 59° |
| 2026-05-07 00:21 | 34.47411 | -81.71040 | 30669 ft | 386 kts | 59° |
| 2026-05-07 00:21 | 34.48778 | -81.68295 | 31159 ft | 374 kts | 59° |
| 2026-05-07 00:21 | 34.50092 | -81.65655 | 31469 ft | 370 kts | 59° |
| 2026-05-07 00:21 | 34.51424 | -81.62975 | 31504 ft | 372 kts | 59° |
| 2026-05-07 00:22 | 34.54108 | -81.57571 | 31515 ft | 377 kts | 59° |
| 2026-05-07 00:22 | 34.55481 | -81.54805 | 31242 ft | 389 kts | 59° |
| 2026-05-07 00:22 | 34.56902 | -81.51939 | 30778 ft | 405 kts | 59° |
| 2026-05-07 00:23 | 34.58386 | -81.48943 | 30207 ft | 423 kts | 59° |
| 2026-05-07 00:23 | 34.59932 | -81.45819 | 29634 ft | 440 kts | 59° |
| 2026-05-07 00:23 | 34.61530 | -81.42588 | 29177 ft | 452 kts | 59° |
| 2026-05-07 00:23 | 34.63158 | -81.39292 | 29026 ft | 457 kts | 59° |
| 2026-05-07 00:24 | 34.66430 | -81.32661 | 29000 ft | 458 kts | 59° |
| 2026-05-07 00:24 | 34.69703 | -81.26013 | 29000 ft | 459 kts | 59° |
| 2026-05-07 00:25 | 34.72953 | -81.19401 | 29000 ft | 459 kts | 59° |
| 2026-05-07 00:25 | 34.76230 | -81.12720 | 29000 ft | 460 kts | 59° |
| 2026-05-07 00:26 | 34.79474 | -81.06002 | 29000 ft | 460 kts | 62° |
| 2026-05-07 00:26 | 34.82163 | -80.98939 | 29038 ft | 459 kts | 66° |
| 2026-05-07 00:27 | 34.84785 | -80.91856 | 29098 ft | 458 kts | 66° |
| 2026-05-07 00:27 | 34.87399 | -80.84780 | 29157 ft | 458 kts | 66° |
| 2026-05-07 00:28 | 34.90001 | -80.77704 | 29217 ft | 457 kts | 66° |
| 2026-05-07 00:28 | 34.92599 | -80.70623 | 29089 ft | 461 kts | 66° |
| 2026-05-07 00:29 | 34.95218 | -80.63465 | 29000 ft | 463 kts | 66° |
| 2026-05-07 00:30 | 35.00431 | -80.49174 | 29000 ft | 463 kts | 66° |
| 2026-05-07 00:30 | 35.03044 | -80.41987 | 29000 ft | 463 kts | 66° |
| 2026-05-07 00:31 | 35.05648 | -80.34806 | 29000 ft | 463 kts | 66° |
| 2026-05-07 00:31 | 35.08247 | -80.27625 | 29000 ft | 463 kts | 66° |
| 2026-05-07 00:32 | 35.10845 | -80.20428 | 29000 ft | 463 kts | 66° |
| 2026-05-07 00:32 | 35.13422 | -80.13275 | 29000 ft | 463 kts | 66° |
| 2026-05-07 00:33 | 35.16009 | -80.06076 | 29000 ft | 463 kts | 66° |
| 2026-05-07 00:33 | 35.18594 | -79.98871 | 29000 ft | 463 kts | 66° |
| 2026-05-07 00:34 | 35.21175 | -79.91667 | 29000 ft | 463 kts | 66° |
| 2026-05-07 00:34 | 35.23758 | -79.84451 | 29000 ft | 463 kts | 66° |
| 2026-05-07 00:35 | 35.26334 | -79.77237 | 29000 ft | 463 kts | 66° |
| 2026-05-07 00:35 | 35.28906 | -79.70017 | 29000 ft | 463 kts | 66° |
| 2026-05-07 00:36 | 35.31455 | -79.62843 | 29000 ft | 463 kts | 66° |
| 2026-05-07 00:36 | 35.34023 | -79.55600 | 29065 ft | 461 kts | 66° |
| 2026-05-07 00:37 | 35.35292 | -79.52013 | 29189 ft | 458 kts | 66° |
| 2026-05-07 00:37 | 35.36556 | -79.48437 | 29313 ft | 455 kts | 66° |
| 2026-05-07 00:37 | 35.37811 | -79.44885 | 29437 ft | 453 kts | 66° |
| 2026-05-07 00:37 | 35.39054 | -79.41361 | 29691 ft | 447 kts | 66° |
| 2026-05-07 00:38 | 35.40261 | -79.37933 | 30165 ft | 435 kts | 67° |
| 2026-05-07 00:38 | 35.41456 | -79.34539 | 30687 ft | 423 kts | 67° |
| 2026-05-07 00:38 | 35.42604 | -79.31274 | 31202 ft | 411 kts | 67° |
| 2026-05-07 00:38 | 35.43718 | -79.28101 | 31716 ft | 399 kts | 67° |
| 2026-05-07 00:39 | 35.44799 | -79.25019 | 32230 ft | 386 kts | 67° |
| 2026-05-07 00:39 | 35.45832 | -79.22071 | 32641 ft | 377 kts | 67° |
| 2026-05-07 00:39 | 35.47903 | -79.16152 | 32715 ft | 378 kts | 67° |
| 2026-05-07 00:40 | 35.49977 | -79.10216 | 32796 ft | 379 kts | 67° |
| 2026-05-07 00:40 | 35.52053 | -79.04260 | 32868 ft | 379 kts | 67° |
| 2026-05-07 00:41 | 35.54115 | -78.98337 | 32950 ft | 379 kts | 67° |
| 2026-05-07 00:41 | 35.56192 | -78.92354 | 32998 ft | 380 kts | 67° |
| 2026-05-07 00:42 | 35.58268 | -78.86367 | 33001 ft | 383 kts | 67° |
| 2026-05-07 00:42 | 35.60360 | -78.80321 | 33000 ft | 385 kts | 67° |
| 2026-05-07 00:43 | 35.62457 | -78.74245 | 33001 ft | 387 kts | 67° |
| 2026-05-07 00:43 | 35.64559 | -78.68138 | 33001 ft | 389 kts | 67° |
| 2026-05-07 00:44 | 35.66672 | -78.61988 | 33000 ft | 391 kts | 67° |
| 2026-05-07 00:44 | 35.68794 | -78.55798 | 33000 ft | 393 kts | 67° |
| 2026-05-07 00:45 | 35.70907 | -78.49626 | 33000 ft | 395 kts | 67° |
| 2026-05-07 00:45 | 35.73038 | -78.43386 | 33002 ft | 396 kts | 67° |
| 2026-05-07 00:46 | 35.75176 | -78.37116 | 33000 ft | 398 kts | 67° |
| 2026-05-07 00:46 | 35.77321 | -78.30817 | 33000 ft | 400 kts | 67° |
| 2026-05-07 00:47 | 35.79470 | -78.24493 | 33000 ft | 401 kts | 67° |
| 2026-05-07 00:47 | 35.81623 | -78.18143 | 33000 ft | 402 kts | 68° |
| 2026-05-07 00:48 | 35.83784 | -78.11759 | 33001 ft | 404 kts | 68° |
| 2026-05-07 00:48 | 35.85943 | -78.05364 | 33000 ft | 405 kts | 68° |
| 2026-05-07 00:49 | 35.88109 | -77.98935 | 33000 ft | 406 kts | 68° |
| 2026-05-07 00:49 | 35.90276 | -77.92491 | 33001 ft | 407 kts | 68° |
| 2026-05-07 00:50 | 35.92078 | -77.87120 | 33000 ft | 408 kts | 68° |
| 2026-05-07 00:50 | 35.94600 | -77.79589 | 33000 ft | 409 kts | 68° |
| 2026-05-07 00:51 | 35.96819 | -77.73111 | 33000 ft | 410 kts | 63° |
| 2026-05-07 00:51 | 35.99394 | -77.68153 | 33000 ft | 411 kts | 51° |
| 2026-05-07 00:52 | 36.03246 | -77.62938 | 33000 ft | 411 kts | 47° |
| 2026-05-07 00:52 | 36.07124 | -77.57733 | 33000 ft | 412 kts | 47° |
| 2026-05-07 00:53 | 36.10982 | -77.52544 | 33000 ft | 413 kts | 47° |
| 2026-05-07 00:53 | 36.14870 | -77.47312 | 33000 ft | 413 kts | 47° |
| 2026-05-07 00:54 | 36.18764 | -77.42065 | 33000 ft | 414 kts | 47° |
| 2026-05-07 00:54 | 36.22667 | -77.36798 | 33000 ft | 415 kts | 47° |
| 2026-05-07 00:55 | 36.26569 | -77.31523 | 33000 ft | 415 kts | 47° |
| 2026-05-07 00:55 | 36.30474 | -77.26236 | 33001 ft | 416 kts | 47° |
| 2026-05-07 00:56 | 36.34683 | -77.21316 | 33000 ft | 416 kts | 42° |
| 2026-05-07 00:56 | 36.38982 | -77.16515 | 32919 ft | 415 kts | 42° |
| 2026-05-07 00:57 | 36.41097 | -77.14148 | 32519 ft | 416 kts | 42° |
| 2026-05-07 00:57 | 36.43260 | -77.11725 | 31832 ft | 420 kts | 42° |
| 2026-05-07 00:57 | 36.45444 | -77.09276 | 30947 ft | 427 kts | 42° |
| 2026-05-07 00:57 | 36.47672 | -77.06777 | 30010 ft | 435 kts | 42° |
| 2026-05-07 00:58 | 36.49926 | -77.04247 | 29522 ft | 443 kts | 42° |
| 2026-05-07 00:58 | 36.52237 | -77.01649 | 29239 ft | 451 kts | 42° |
| 2026-05-07 00:58 | 36.54576 | -76.99019 | 29077 ft | 456 kts | 42° |
| 2026-05-07 00:58 | 36.56932 | -76.96367 | 29002 ft | 458 kts | 42° |
| 2026-05-07 00:59 | 36.64034 | -76.88360 | 29000 ft | 459 kts | 42° |
| 2026-05-07 01:00 | 36.68773 | -76.83005 | 29000 ft | 460 kts | 42° |
| 2026-05-07 01:00 | 36.73514 | -76.77638 | 29000 ft | 461 kts | 42° |
| 2026-05-07 01:01 | 36.78257 | -76.72260 | 29000 ft | 461 kts | 42° |
| 2026-05-07 01:01 | 36.83005 | -76.66867 | 29000 ft | 462 kts | 42° |
| 2026-05-07 01:02 | 36.87755 | -76.61461 | 29000 ft | 462 kts | 42° |
| 2026-05-07 01:02 | 36.92499 | -76.56053 | 29000 ft | 462 kts | 42° |
| 2026-05-07 01:03 | 36.97251 | -76.50627 | 29000 ft | 462 kts | 42° |
| 2026-05-07 01:03 | 37.02001 | -76.45193 | 29001 ft | 463 kts | 42° |
| 2026-05-07 01:04 | 37.06747 | -76.39754 | 29000 ft | 463 kts | 42° |
| 2026-05-07 01:04 | 37.11496 | -76.34302 | 29000 ft | 463 kts | 42° |
| 2026-05-07 01:05 | 37.16209 | -76.28882 | 29000 ft | 463 kts | 43° |
| 2026-05-07 01:05 | 37.20985 | -76.23379 | 29000 ft | 463 kts | 43° |
| 2026-05-07 01:06 | 37.25699 | -76.17938 | 29001 ft | 463 kts | 43° |
| 2026-05-07 01:06 | 37.30442 | -76.12454 | 29000 ft | 463 kts | 43° |
| 2026-05-07 01:07 | 37.35182 | -76.06963 | 29000 ft | 463 kts | 43° |
| 2026-05-07 01:07 | 37.39924 | -76.01461 | 29000 ft | 464 kts | 43° |
| 2026-05-07 01:08 | 37.44659 | -75.95956 | 29000 ft | 464 kts | 43° |
| 2026-05-07 01:08 | 37.49390 | -75.90446 | 29000 ft | 464 kts | 43° |
| 2026-05-07 01:09 | 37.54303 | -75.85191 | 29001 ft | 463 kts | 34° |
| 2026-05-07 01:09 | 37.59824 | -75.80991 | 29000 ft | 463 kts | 31° |
| 2026-05-07 01:10 | 37.65369 | -75.76829 | 29000 ft | 463 kts | 31° |
| 2026-05-07 01:10 | 37.70873 | -75.72692 | 29000 ft | 464 kts | 31° |
| 2026-05-07 01:11 | 37.76419 | -75.68520 | 29000 ft | 464 kts | 31° |
| 2026-05-07 01:11 | 37.81962 | -75.64344 | 29000 ft | 464 kts | 31° |
| 2026-05-07 01:12 | 37.87368 | -75.59896 | 29000 ft | 464 kts | 34° |
| 2026-05-07 01:12 | 37.92686 | -75.55272 | 29000 ft | 464 kts | 34° |
| 2026-05-07 01:13 | 37.98004 | -75.50645 | 29000 ft | 464 kts | 34° |
| 2026-05-07 01:13 | 38.03322 | -75.46005 | 29000 ft | 464 kts | 34° |
| 2026-05-07 01:14 | 38.08676 | -75.41434 | 29000 ft | 464 kts | 32° |
| 2026-05-07 01:14 | 38.14128 | -75.37048 | 29000 ft | 464 kts | 32° |
| 2026-05-07 01:15 | 38.19563 | -75.32649 | 29000 ft | 464 kts | 32° |
| 2026-05-07 01:15 | 38.25236 | -75.28782 | 29001 ft | 464 kts | 20° |
| 2026-05-07 01:16 | 38.31479 | -75.26809 | 29001 ft | 463 kts | 9° |
| 2026-05-07 01:16 | 38.37816 | -75.25478 | 29000 ft | 463 kts | 9° |
| 2026-05-07 01:17 | 38.44186 | -75.24126 | 29000 ft | 463 kts | 9° |
| 2026-05-07 01:17 | 38.50549 | -75.22783 | 29000 ft | 463 kts | 9° |
| 2026-05-07 01:18 | 38.56915 | -75.21447 | 29000 ft | 463 kts | 9° |
| 2026-05-07 01:18 | 38.63233 | -75.20120 | 29000 ft | 464 kts | 9° |
| 2026-05-07 01:19 | 38.69493 | -75.18194 | 29001 ft | 464 kts | 22° |
| 2026-05-07 01:19 | 38.75033 | -75.14028 | 29002 ft | 463 kts | 38° |
| 2026-05-07 01:20 | 38.80150 | -75.09008 | 29000 ft | 464 kts | 37° |
| 2026-05-07 01:20 | 38.85283 | -75.03984 | 29000 ft | 464 kts | 37° |
| 2026-05-07 01:21 | 38.90405 | -74.98952 | 29000 ft | 464 kts | 37° |
| 2026-05-07 01:21 | 38.95527 | -74.93907 | 29000 ft | 464 kts | 37° |
| 2026-05-07 01:22 | 39.00648 | -74.88853 | 29000 ft | 464 kts | 37° |
| 2026-05-07 01:22 | 39.05765 | -74.83794 | 29000 ft | 464 kts | 37° |
| 2026-05-07 01:23 | 39.10880 | -74.78707 | 29000 ft | 464 kts | 39° |
| 2026-05-07 01:23 | 39.15830 | -74.73365 | 29000 ft | 464 kts | 40° |
| 2026-05-07 01:24 | 39.20754 | -74.67973 | 29000 ft | 464 kts | 40° |
| 2026-05-07 01:24 | 39.23217 | -74.65293 | 28883 ft | 461 kts | 40° |
| 2026-05-07 01:24 | 39.25660 | -74.62642 | 28061 ft | 458 kts | 40° |
| 2026-05-07 01:24 | 39.28113 | -74.59982 | 26672 ft | 463 kts | 40° |
| 2026-05-07 01:25 | 39.30594 | -74.57290 | 24967 ft | 471 kts | 40° |
| 2026-05-07 01:25 | 39.33085 | -74.54585 | 23563 ft | 476 kts | 40° |
| 2026-05-07 01:25 | 39.35618 | -74.51832 | 22717 ft | 472 kts | 40° |
| 2026-05-07 01:25 | 39.38088 | -74.49144 | 22200 ft | 459 kts | 40° |
| 2026-05-07 01:26 | 39.40504 | -74.46512 | 21627 ft | 449 kts | 40° |
| 2026-05-07 01:26 | 39.42850 | -74.43954 | 21316 ft | 433 kts | 40° |
| 2026-05-07 01:26 | 39.45107 | -74.41490 | 21065 ft | 418 kts | 40° |
| 2026-05-07 01:26 | 39.47324 | -74.39069 | 20766 ft | 417 kts | 40° |
| 2026-05-07 01:27 | 39.49548 | -74.36638 | 20219 ft | 419 kts | 40° |
| 2026-05-07 01:27 | 39.51760 | -74.34218 | 19665 ft | 415 kts | 40° |
| 2026-05-07 01:27 | 39.53954 | -74.31815 | 19111 ft | 409 kts | 40° |
| 2026-05-07 01:27 | 39.56106 | -74.29457 | 18563 ft | 402 kts | 40° |
| 2026-05-07 01:28 | 39.58219 | -74.27139 | 18180 ft | 394 kts | 40° |
| 2026-05-07 01:28 | 39.60326 | -74.24826 | 18038 ft | 400 kts | 40° |
| 2026-05-07 01:28 | 39.62453 | -74.22483 | 18000 ft | 401 kts | 40° |
| 2026-05-07 01:28 | 39.64580 | -74.20146 | 18000 ft | 400 kts | 40° |
| 2026-05-07 01:29 | 39.66706 | -74.17807 | 18000 ft | 401 kts | 40° |
| 2026-05-07 01:29 | 39.68830 | -74.15463 | 17999 ft | 401 kts | 40° |
| 2026-05-07 01:29 | 39.70957 | -74.13129 | 18000 ft | 400 kts | 40° |
| 2026-05-07 01:29 | 39.73078 | -74.10791 | 18000 ft | 401 kts | 40° |
| 2026-05-07 01:30 | 39.75200 | -74.08440 | 18000 ft | 401 kts | 40° |
| 2026-05-07 01:30 | 39.77318 | -74.06091 | 18001 ft | 400 kts | 40° |
| 2026-05-07 01:30 | 39.79446 | -74.03748 | 18000 ft | 400 kts | 40° |
| 2026-05-07 01:30 | 39.81566 | -74.01408 | 18000 ft | 400 kts | 40° |
| 2026-05-07 01:31 | 39.83710 | -73.99126 | 17949 ft | 399 kts | 36° |
| 2026-05-07 01:31 | 39.86045 | -73.97202 | 17682 ft | 392 kts | 28° |
| 2026-05-07 01:31 | 39.88387 | -73.95571 | 17494 ft | 372 kts | 28° |
| 2026-05-07 01:31 | 39.90596 | -73.94014 | 17303 ft | 351 kts | 28° |
| 2026-05-07 01:32 | 39.92692 | -73.92528 | 16938 ft | 338 kts | 28° |
| 2026-05-07 01:32 | 39.94751 | -73.91066 | 16375 ft | 336 kts | 28° |
| 2026-05-07 01:32 | 39.96803 | -73.89609 | 15592 ft | 337 kts | 28° |
| 2026-05-07 01:32 | 39.98882 | -73.88133 | 14491 ft | 346 kts | 28° |
| 2026-05-07 01:33 | 40.01034 | -73.86599 | 13167 ft | 359 kts | 30° |
| 2026-05-07 01:33 | 40.03061 | -73.84778 | 12402 ft | 354 kts | 38° |
| 2026-05-07 01:33 | 40.04967 | -73.82844 | 12166 ft | 332 kts | 37° |
| 2026-05-07 01:33 | 40.06725 | -73.81095 | 11980 ft | 312 kts | 37° |
| 2026-05-07 01:34 | 40.08400 | -73.79435 | 11810 ft | 293 kts | 37° |
| 2026-05-07 01:34 | 40.09990 | -73.77854 | 11440 ft | 283 kts | 37° |
| 2026-05-07 01:34 | 40.11537 | -73.76312 | 11236 ft | 282 kts | 37° |
| 2026-05-07 01:34 | 40.13114 | -73.74736 | 11152 ft | 284 kts | 37° |
| 2026-05-07 01:35 | 40.14681 | -73.73166 | 11145 ft | 284 kts | 37° |
| 2026-05-07 01:35 | 40.16249 | -73.71595 | 11145 ft | 284 kts | 37° |
| 2026-05-07 01:35 | 40.17817 | -73.70021 | 11144 ft | 284 kts | 37° |
| 2026-05-07 01:35 | 40.19343 | -73.68408 | 10997 ft | 281 kts | 47° |
| 2026-05-07 01:36 | 40.20355 | -73.66260 | 10559 ft | 278 kts | 73° |
| 2026-05-07 01:36 | 40.20831 | -73.63812 | 10033 ft | 277 kts | 77° |
| 2026-05-07 01:36 | 40.21394 | -73.61418 | 9490 ft | 275 kts | 61° |
| 2026-05-07 01:36 | 40.22628 | -73.59555 | 8925 ft | 272 kts | 34° |
| 2026-05-07 01:37 | 40.24269 | -73.58345 | 8383 ft | 270 kts | 27° |
| 2026-05-07 01:37 | 40.25907 | -73.57227 | 7872 ft | 267 kts | 27° |
| 2026-05-07 01:37 | 40.27547 | -73.56107 | 7357 ft | 265 kts | 27° |
| 2026-05-07 01:37 | 40.29177 | -73.54995 | 6846 ft | 263 kts | 27° |
| 2026-05-07 01:38 | 40.30793 | -73.53892 | 6341 ft | 261 kts | 27° |
| 2026-05-07 01:38 | 40.32395 | -73.52799 | 5843 ft | 258 kts | 27° |
| 2026-05-07 01:38 | 40.33984 | -73.51714 | 5351 ft | 256 kts | 27° |
| 2026-05-07 01:38 | 40.35560 | -73.50639 | 4865 ft | 254 kts | 27° |
| 2026-05-07 01:39 | 40.36596 | -73.49939 | 4547 ft | 253 kts | 25° |
| 2026-05-07 01:39 | 40.38268 | -73.49388 | 4248 ft | 249 kts | 7° |
| 2026-05-07 01:39 | 40.40008 | -73.49077 | 4153 ft | 252 kts | 7° |
| 2026-05-07 01:39 | 40.41740 | -73.48770 | 4145 ft | 251 kts | 7° |
| 2026-05-07 01:40 | 40.43474 | -73.48462 | 4152 ft | 253 kts | 7° |
| 2026-05-07 01:40 | 40.45217 | -73.48153 | 4145 ft | 251 kts | 7° |
| 2026-05-07 01:40 | 40.46947 | -73.47847 | 4145 ft | 251 kts | 7° |
| 2026-05-07 01:40 | 40.48681 | -73.47540 | 4145 ft | 251 kts | 7° |
| 2026-05-07 01:41 | 40.50411 | -73.47233 | 4145 ft | 251 kts | 7° |
| 2026-05-07 01:41 | 40.52145 | -73.46926 | 4145 ft | 251 kts | 7° |
| 2026-05-07 01:41 | 40.53875 | -73.46620 | 4145 ft | 251 kts | 7° |
| 2026-05-07 01:41 | 40.55609 | -73.46314 | 4145 ft | 251 kts | 7° |
| 2026-05-07 01:42 | 40.57340 | -73.46008 | 4145 ft | 251 kts | 7° |
| 2026-05-07 01:42 | 40.59074 | -73.45702 | 4145 ft | 251 kts | 7° |
| 2026-05-07 01:42 | 40.60808 | -73.45396 | 4144 ft | 251 kts | 7° |
| 2026-05-07 01:42 | 40.62531 | -73.45092 | 4025 ft | 249 kts | 7° |
| 2026-05-07 01:43 | 40.64245 | -73.44790 | 3734 ft | 248 kts | 7° |
| 2026-05-07 01:43 | 40.65953 | -73.44489 | 3414 ft | 248 kts | 7° |
| 2026-05-07 01:43 | 40.67654 | -73.44189 | 3194 ft | 243 kts | 7° |
| 2026-05-07 01:43 | 40.69357 | -73.44034 | 3145 ft | 247 kts | 351° |
| 2026-05-07 01:44 | 40.70986 | -73.44716 | 3146 ft | 246 kts | 337° |
| 2026-05-07 01:44 | 40.72552 | -73.45555 | 3146 ft | 246 kts | 337° |
| 2026-05-07 01:44 | 40.74157 | -73.46417 | 3146 ft | 246 kts | 337° |
| 2026-05-07 01:44 | 40.75732 | -73.47261 | 3144 ft | 239 kts | 337° |
| 2026-05-07 01:45 | 40.77227 | -73.48062 | 3144 ft | 225 kts | 337° |
| 2026-05-07 01:45 | 40.78633 | -73.48828 | 3141 ft | 211 kts | 332° |
| 2026-05-07 01:45 | 40.79653 | -73.50065 | 3147 ft | 194 kts | 300° |
| 2026-05-07 01:45 | 40.80297 | -73.51589 | 3146 ft | 193 kts | 297° |
| 2026-05-07 01:46 | 40.80927 | -73.53144 | 3144 ft | 191 kts | 297° |
| 2026-05-07 01:46 | 40.81549 | -73.54682 | 3001 ft | 189 kts | 297° |
| 2026-05-07 01:46 | 40.82169 | -73.56214 | 2739 ft | 190 kts | 297° |
| 2026-05-07 01:46 | 40.82789 | -73.57749 | 2536 ft | 186 kts | 297° |
| 2026-05-07 01:47 | 40.83312 | -73.59279 | 2238 ft | 182 kts | 279° |
| 2026-05-07 01:47 | 40.83093 | -73.60894 | 2153 ft | 186 kts | 241° |
| 2026-05-07 01:47 | 40.82271 | -73.62155 | 2148 ft | 185 kts | 208° |
| 2026-05-07 01:47 | 40.81068 | -73.62777 | 2145 ft | 186 kts | 200° |
| 2026-05-07 01:48 | 40.79882 | -73.63462 | 2146 ft | 186 kts | 207° |
| 2026-05-07 01:48 | 40.78753 | -73.64294 | 2146 ft | 186 kts | 211° |
| 2026-05-07 01:48 | 40.77647 | -73.65180 | 2146 ft | 186 kts | 211° |
| 2026-05-07 01:48 | 40.76538 | -73.66052 | 2146 ft | 186 kts | 211° |
| 2026-05-07 01:49 | 40.75438 | -73.66918 | 2146 ft | 186 kts | 211° |
| 2026-05-07 01:49 | 40.74325 | -73.67793 | 2146 ft | 186 kts | 211° |
| 2026-05-07 01:49 | 40.73214 | -73.68666 | 2146 ft | 186 kts | 211° |
| 2026-05-07 01:49 | 40.72105 | -73.69538 | 2143 ft | 184 kts | 211° |
| 2026-05-07 01:50 | 40.71056 | -73.70353 | 1802 ft | 172 kts | 210° |
| 2026-05-07 01:50 | 40.70058 | -73.71146 | 1429 ft | 162 kts | 211° |
| 2026-05-07 01:50 | 40.69130 | -73.71873 | 1124 ft | 150 kts | 211° |
| 2026-05-07 01:50 | 40.68288 | -73.72536 | 909 ft | 135 kts | 211° |
| 2026-05-07 01:51 | 40.67515 | -73.73142 | 726 ft | 125 kts | 211° |
| 2026-05-07 01:51 | 40.66755 | -73.73738 | 559 ft | 127 kts | 211° |
| 2026-05-07 01:51 | 40.65997 | -73.74323 | 324 ft | 125 kts | 210° |
| 2026-05-07 01:51 | 40.65253 | -73.74900 | 224 ft | 125 kts | 211° |
| 2026-05-07 01:52 | 40.64511 | -73.75487 | 54 ft | 126 kts | 211° |
| 2026-05-07 01:52 | 40.63837 | -73.76025 | 19 ft | 88 kts | 210° |
| 2026-05-07 01:52 | 40.63485 | -73.76300 | 24 ft | 30 kts | 212° |
| 2026-05-07 01:52 | 40.63358 | -73.76408 | 22 ft | 34 kts | 218° |
| 2026-05-07 01:53 | 40.63238 | -73.76631 | 19 ft | 14 kts | 248° |
| 2026-05-07 01:53 | 40.63252 | -73.76753 | 19 ft | 15 kts | 298° |
| 2026-05-07 01:53 | 40.63309 | -73.76875 | 21 ft | 17 kts | 301° |
| 2026-05-07 01:53 | 40.63339 | -73.76940 | 21 ft | 2 kts | 300° |
| 2026-05-07 01:54 | 40.63354 | -73.76976 | 21 ft | 7 kts | 300° |
| 2026-05-07 01:54 | 40.63408 | -73.77097 | 23 ft | 31 kts | 301° |
| 2026-05-07 01:54 | 40.63498 | -73.77290 | 23 ft | 24 kts | 296° |
| 2026-05-07 01:54 | 40.63574 | -73.77463 | 23 ft | 19 kts | 301° |
| 2026-05-07 01:55 | 40.63646 | -73.77608 | 20 ft | 13 kts | 307° |
| 2026-05-07 01:55 | 40.63685 | -73.77663 | 20 ft | 5 kts | 351° |
| 2026-05-07 01:55 | 40.63733 | -73.77653 | 20 ft | 9 kts | 357° |
| 2026-05-07 01:55 | 40.63791 | -73.77704 | 22 ft | 11 kts | 322° |
| 2026-05-07 01:56 | 40.63867 | -73.77776 | 23 ft | 15 kts | 326° |
| 2026-05-07 01:56 | 40.63969 | -73.77858 | 23 ft | 19 kts | 332° |
| 2026-05-07 01:56 | 40.64049 | -73.77868 | 23 ft | 10 kts | 37° |
| 2026-05-07 01:56 | 40.64104 | -73.77750 | 23 ft | 21 kts | 62° |
| 2026-05-07 01:57 | 40.64132 | -73.77685 | 23 ft | 0 kts | 60° |
| 2026-05-07 01:57 | 40.64140 | -73.77673 | 23 ft | 1 kts | 44° |
| 2026-05-07 01:57 | 40.64167 | -73.77670 | 23 ft | 0 kts | 348° |
| 2026-05-07 01:57 | 40.64175 | -73.77676 | 23 ft | 0 kts | 333° |